sensor_id;sensor_type;location;lat;lon;timestamp;pressure;altitude;pressure_sealevel;temperature
24278;BMP280;12394;42.692;23.314;2024-03-08T00:02:03;95036.09;;;6.60
24278;BMP280;12394;42.692;23.314;2024-03-08T00:04:29;95045.09;;;6.66
24278;BMP280;12394;42.692;23.314;2024-03-08T00:06:54;95035.06;;;6.68
24278;BMP280;12394;42.692;23.314;2024-03-08T00:09:20;95042.13;;;6.67
24278;BMP280;12394;42.692;23.314;2024-03-08T00:11:46;95036.97;;;6.71
24278;BMP280;12394;42.692;23.314;2024-03-08T00:14:12;95039.59;;;6.75
24278;BMP280;12394;42.692;23.314;2024-03-08T00:16:37;95036.94;;;6.67
24278;BMP280;12394;42.692;23.314;2024-03-08T00:19:03;95036.19;;;6.67
24278;BMP280;12394;42.692;23.314;2024-03-08T00:21:29;95020.13;;;6.58
24278;BMP280;12394;42.692;23.314;2024-03-08T00:23:54;95031.78;;;6.71
24278;BMP280;12394;42.692;23.314;2024-03-08T00:26:21;95036.56;;;6.69
24278;BMP280;12394;42.692;23.314;2024-03-08T00:28:48;95035.72;;;6.58
24278;BMP280;12394;42.692;23.314;2024-03-08T00:31:14;95021.50;;;6.45
24278;BMP280;12394;42.692;23.314;2024-03-08T00:33:42;95016.97;;;6.38
24278;BMP280;12394;42.692;23.314;2024-03-08T00:36:08;95024.81;;;6.45
24278;BMP280;12394;42.692;23.314;2024-03-08T00:38:34;95027.41;;;6.45
24278;BMP280;12394;42.692;23.314;2024-03-08T00:41:00;95023.66;;;6.39
24278;BMP280;12394;42.692;23.314;2024-03-08T00:43:25;95017.00;;;6.42
24278;BMP280;12394;42.692;23.314;2024-03-08T00:45:51;95003.09;;;6.23
24278;BMP280;12394;42.692;23.314;2024-03-08T00:48:17;95025.13;;;6.37
24278;BMP280;12394;42.692;23.314;2024-03-08T00:50:42;95010.22;;;6.30
24278;BMP280;12394;42.692;23.314;2024-03-08T00:53:11;95016.16;;;6.31
24278;BMP280;12394;42.692;23.314;2024-03-08T00:55:37;95010.88;;;6.23
24278;BMP280;12394;42.692;23.314;2024-03-08T00:58:03;95006.38;;;6.17
24278;BMP280;12394;42.692;23.314;2024-03-08T01:00:29;94999.38;;;6.21
24278;BMP280;12394;42.692;23.314;2024-03-08T01:02:54;94998.28;;;6.25
24278;BMP280;12394;42.692;23.314;2024-03-08T01:05:20;95002.41;;;6.27
24278;BMP280;12394;42.692;23.314;2024-03-08T01:07:45;94994.22;;;6.28
24278;BMP280;12394;42.692;23.314;2024-03-08T01:10:11;95000.91;;;6.25
24278;BMP280;12394;42.692;23.314;2024-03-08T01:12:38;94990.13;;;6.27
24278;BMP280;12394;42.692;23.314;2024-03-08T01:15:04;94954.59;;;5.98
24278;BMP280;12394;42.692;23.314;2024-03-08T01:17:30;94988.53;;;6.15
24278;BMP280;12394;42.692;23.314;2024-03-08T01:19:56;94989.66;;;6.18
24278;BMP280;12394;42.692;23.314;2024-03-08T01:22:22;94997.75;;;6.09
24278;BMP280;12394;42.692;23.314;2024-03-08T01:24:48;94996.66;;;6.10
24278;BMP280;12394;42.692;23.314;2024-03-08T01:27:14;94985.47;;;6.06
24278;BMP280;12394;42.692;23.314;2024-03-08T01:29:40;94974.63;;;5.97
24278;BMP280;12394;42.692;23.314;2024-03-08T01:32:05;94980.78;;;6.19
24278;BMP280;12394;42.692;23.314;2024-03-08T01:34:31;94980.75;;;6.15
24278;BMP280;12394;42.692;23.314;2024-03-08T01:36:58;94978.09;;;6.08
24278;BMP280;12394;42.692;23.314;2024-03-08T01:39:24;94985.78;;;6.01
24278;BMP280;12394;42.692;23.314;2024-03-08T01:41:50;94976.47;;;5.97
24278;BMP280;12394;42.692;23.314;2024-03-08T01:44:16;94981.28;;;5.95
24278;BMP280;12394;42.692;23.314;2024-03-08T01:46:47;94970.53;;;5.96
24278;BMP280;12394;42.692;23.314;2024-03-08T01:49:14;94971.22;;;5.90
24278;BMP280;12394;42.692;23.314;2024-03-08T01:51:41;94974.97;;;5.96
24278;BMP280;12394;42.692;23.314;2024-03-08T01:54:06;94977.25;;;6.01
24278;BMP280;12394;42.692;23.314;2024-03-08T01:56:36;94972.00;;;5.94
24278;BMP280;12394;42.692;23.314;2024-03-08T01:59:03;94975.09;;;6.06
24278;BMP280;12394;42.692;23.314;2024-03-08T02:01:29;94968.84;;;6.14
24278;BMP280;12394;42.692;23.314;2024-03-08T02:03:54;94962.63;;;6.22
24278;BMP280;12394;42.692;23.314;2024-03-08T02:06:20;94961.22;;;6.29
24278;BMP280;12394;42.692;23.314;2024-03-08T02:08:45;94951.44;;;6.18
24278;BMP280;12394;42.692;23.314;2024-03-08T02:11:12;94964.97;;;6.31
24278;BMP280;12394;42.692;23.314;2024-03-08T02:13:38;94966.09;;;6.37
24278;BMP280;12394;42.692;23.314;2024-03-08T02:16:04;94960.84;;;6.30
24278;BMP280;12394;42.692;23.314;2024-03-08T02:18:30;94973.56;;;6.39
24278;BMP280;12394;42.692;23.314;2024-03-08T02:21:01;94961.28;;;6.36
24278;BMP280;12394;42.692;23.314;2024-03-08T02:23:27;94954.22;;;6.36
24278;BMP280;12394;42.692;23.314;2024-03-08T02:25:55;94972.47;;;6.43
24278;BMP280;12394;42.692;23.314;2024-03-08T02:28:22;94981.38;;;6.42
24278;BMP280;12394;42.692;23.314;2024-03-08T02:30:48;94977.66;;;6.40
24278;BMP280;12394;42.692;23.314;2024-03-08T02:33:15;94983.63;;;6.44
24278;BMP280;12394;42.692;23.314;2024-03-08T02:35:47;94977.72;;;6.50
24278;BMP280;12394;42.692;23.314;2024-03-08T02:38:17;94984.25;;;6.34
24278;BMP280;12394;42.692;23.314;2024-03-08T02:40:48;94983.50;;;6.30
24278;BMP280;12394;42.692;23.314;2024-03-08T02:43:15;94991.53;;;6.17
24278;BMP280;12394;42.692;23.314;2024-03-08T02:45:42;94983.66;;;6.10
24278;BMP280;12394;42.692;23.314;2024-03-08T02:48:08;94983.88;;;5.95
24278;BMP280;12394;42.692;23.314;2024-03-08T02:50:34;94995.59;;;5.85
24278;BMP280;12394;42.692;23.314;2024-03-08T02:53:00;94981.13;;;5.84
24278;BMP280;12394;42.692;23.314;2024-03-08T02:55:26;94983.31;;;5.82
24278;BMP280;12394;42.692;23.314;2024-03-08T02:57:52;94966.56;;;5.76
24278;BMP280;12394;42.692;23.314;2024-03-08T05:18:16;95086.75;;;5.80
24278;BMP280;12394;42.692;23.314;2024-03-08T05:20:41;95093.59;;;5.92
24278;BMP280;12394;42.692;23.314;2024-03-08T05:23:07;95098.00;;;5.88
24278;BMP280;12394;42.692;23.314;2024-03-08T05:25:33;95099.44;;;5.85
24278;BMP280;12394;42.692;23.314;2024-03-08T05:27:59;95111.22;;;5.79
24278;BMP280;12394;42.692;23.314;2024-03-08T05:30:24;95104.53;;;5.78
24278;BMP280;12394;42.692;23.314;2024-03-08T05:32:50;95116.00;;;5.77
24278;BMP280;12394;42.692;23.314;2024-03-08T05:35:15;95126.38;;;5.77
24278;BMP280;12394;42.692;23.314;2024-03-08T05:37:42;95119.22;;;5.67
24278;BMP280;12394;42.692;23.314;2024-03-08T05:40:10;95130.41;;;5.71
24278;BMP280;12394;42.692;23.314;2024-03-08T05:42:36;95113.91;;;5.60
24278;BMP280;12394;42.692;23.314;2024-03-08T05:45:05;95139.28;;;5.70
24278;BMP280;12394;42.692;23.314;2024-03-08T05:47:32;95110.47;;;5.52
24278;BMP280;12394;42.692;23.314;2024-03-08T05:49:58;95136.47;;;5.56
24278;BMP280;12394;42.692;23.314;2024-03-08T05:52:24;95136.38;;;5.49
24278;BMP280;12394;42.692;23.314;2024-03-08T05:54:51;95144.94;;;5.53
24278;BMP280;12394;42.692;23.314;2024-03-08T05:57:16;95145.72;;;5.53
24278;BMP280;12394;42.692;23.314;2024-03-08T05:59:42;95146.56;;;5.61
24278;BMP280;12394;42.692;23.314;2024-03-08T06:02:08;95151.84;;;5.68
24278;BMP280;12394;42.692;23.314;2024-03-08T06:04:33;95152.75;;;5.53
24278;BMP280;12394;42.692;23.314;2024-03-08T06:06:59;95154.56;;;5.52
24278;BMP280;12394;42.692;23.314;2024-03-08T06:09:25;95150.09;;;5.49
24278;BMP280;12394;42.692;23.314;2024-03-08T06:11:54;95159.44;;;5.54
24278;BMP280;12394;42.692;23.314;2024-03-08T06:14:20;95163.50;;;5.55
24278;BMP280;12394;42.692;23.314;2024-03-08T06:16:46;95163.16;;;5.56
24278;BMP280;12394;42.692;23.314;2024-03-08T06:19:13;95165.75;;;5.56
24278;BMP280;12394;42.692;23.314;2024-03-08T06:21:39;95172.22;;;5.66
24278;BMP280;12394;42.692;23.314;2024-03-08T06:24:04;95161.03;;;5.62
24278;BMP280;12394;42.692;23.314;2024-03-08T06:26:30;95166.91;;;5.59
24278;BMP280;12394;42.692;23.314;2024-03-08T06:28:56;95167.25;;;5.57
24278;BMP280;12394;42.692;23.314;2024-03-08T06:31:22;95164.97;;;5.52
24278;BMP280;12394;42.692;23.314;2024-03-08T06:33:48;95175.94;;;5.68
24278;BMP280;12394;42.692;23.314;2024-03-08T06:36:18;95171.28;;;5.55
24278;BMP280;12394;42.692;23.314;2024-03-08T06:38:48;95161.78;;;5.62
24278;BMP280;12394;42.692;23.314;2024-03-08T06:41:14;95178.72;;;5.79
24278;BMP280;12394;42.692;23.314;2024-03-08T06:43:44;95178.81;;;5.86
24278;BMP280;12394;42.692;23.314;2024-03-08T06:46:11;95174.56;;;5.97
24278;BMP280;12394;42.692;23.314;2024-03-08T06:48:39;95177.16;;;5.97
24278;BMP280;12394;42.692;23.314;2024-03-08T06:51:05;95184.03;;;6.12
24278;BMP280;12394;42.692;23.314;2024-03-08T06:53:31;95187.41;;;6.13
24278;BMP280;12394;42.692;23.314;2024-03-08T06:56:01;95119.28;;;5.48
24278;BMP280;12394;42.692;23.314;2024-03-08T06:58:27;95192.97;;;6.15
24278;BMP280;12394;42.692;23.314;2024-03-08T07:00:53;95192.75;;;6.27
24278;BMP280;12394;42.692;23.314;2024-03-08T07:03:19;95195.81;;;6.33
24278;BMP280;12394;42.692;23.314;2024-03-08T07:05:44;95186.88;;;6.60
24278;BMP280;12394;42.692;23.314;2024-03-08T07:08:10;95193.31;;;6.40
24278;BMP280;12394;42.692;23.314;2024-03-08T07:10:39;95190.31;;;6.67
24278;BMP280;12394;42.692;23.314;2024-03-08T07:13:07;95192.44;;;6.58
24278;BMP280;12394;42.692;23.314;2024-03-08T07:15:32;95198.66;;;6.84
24278;BMP280;12394;42.692;23.314;2024-03-08T07:17:58;95187.75;;;6.71
24278;BMP280;12394;42.692;23.314;2024-03-08T07:20:25;95195.94;;;6.73
24278;BMP280;12394;42.692;23.314;2024-03-08T07:22:50;95197.28;;;6.93
24278;BMP280;12394;42.692;23.314;2024-03-08T07:25:16;95203.31;;;6.67
24278;BMP280;12394;42.692;23.314;2024-03-08T07:27:50;95206.63;;;6.68
24278;BMP280;12394;42.692;23.314;2024-03-08T07:30:16;95202.66;;;6.44
24278;BMP280;12394;42.692;23.314;2024-03-08T07:33:01;95198.59;;;6.47
24278;BMP280;12394;42.692;23.314;2024-03-08T07:35:28;95204.31;;;6.59
24278;BMP280;12394;42.692;23.314;2024-03-08T07:37:54;95215.22;;;6.42
24278;BMP280;12394;42.692;23.314;2024-03-08T07:40:21;95218.13;;;6.37
24278;BMP280;12394;42.692;23.314;2024-03-08T07:42:46;95209.09;;;6.28
24278;BMP280;12394;42.692;23.314;2024-03-08T07:45:12;95209.97;;;6.35
24278;BMP280;12394;42.692;23.314;2024-03-08T07:47:38;95218.53;;;6.39
24278;BMP280;12394;42.692;23.314;2024-03-08T07:50:04;95214.59;;;6.49
24278;BMP280;12394;42.692;23.314;2024-03-08T07:52:29;95206.50;;;6.54
24278;BMP280;12394;42.692;23.314;2024-03-08T07:54:55;95217.38;;;6.63
24278;BMP280;12394;42.692;23.314;2024-03-08T07:57:20;95206.88;;;6.56
24278;BMP280;12394;42.692;23.314;2024-03-08T07:59:46;95205.81;;;6.60
24278;BMP280;12394;42.692;23.314;2024-03-08T08:02:11;95213.19;;;6.88
24278;BMP280;12394;42.692;23.314;2024-03-08T08:04:37;95213.19;;;6.88
24278;BMP280;12394;42.692;23.314;2024-03-08T08:07:24;95210.53;;;6.81
24278;BMP280;12394;42.692;23.314;2024-03-08T08:09:53;95216.03;;;6.76
24278;BMP280;12394;42.692;23.314;2024-03-08T08:12:18;95214.25;;;6.84
24278;BMP280;12394;42.692;23.314;2024-03-08T08:14:44;95210.16;;;6.83
24278;BMP280;12394;42.692;23.314;2024-03-08T08:17:09;95214.00;;;6.96
24278;BMP280;12394;42.692;23.314;2024-03-08T08:19:35;95198.50;;;7.03
24278;BMP280;12394;42.692;23.314;2024-03-08T08:22:03;95215.66;;;7.48
24278;BMP280;12394;42.692;23.314;2024-03-08T08:24:30;95212.66;;;7.90
24278;BMP280;12394;42.692;23.314;2024-03-08T08:26:55;95206.06;;;8.07
24278;BMP280;12394;42.692;23.314;2024-03-08T08:29:21;95216.53;;;8.79
24278;BMP280;12394;42.692;23.314;2024-03-08T08:31:48;95220.44;;;9.38
24278;BMP280;12394;42.692;23.314;2024-03-08T08:34:15;95220.44;;;10.41
24278;BMP280;12394;42.692;23.314;2024-03-08T08:36:42;95225.47;;;11.11
24278;BMP280;12394;42.692;23.314;2024-03-08T08:39:07;95225.06;;;11.79
24278;BMP280;12394;42.692;23.314;2024-03-08T08:41:39;95213.66;;;11.99
24278;BMP280;12394;42.692;23.314;2024-03-08T08:44:04;95220.63;;;12.58
24278;BMP280;12394;42.692;23.314;2024-03-08T08:46:36;95212.56;;;12.38
24278;BMP280;12394;42.692;23.314;2024-03-08T08:49:06;95219.94;;;12.54
24278;BMP280;12394;42.692;23.314;2024-03-08T08:51:35;95214.50;;;12.68
24278;BMP280;12394;42.692;23.314;2024-03-08T08:54:00;95198.25;;;13.10
24278;BMP280;12394;42.692;23.314;2024-03-08T08:56:26;95213.16;;;13.74
24278;BMP280;12394;42.692;23.314;2024-03-08T08:58:52;95212.09;;;15.00
24278;BMP280;12394;42.692;23.314;2024-03-08T09:01:20;95206.66;;;16.40
24278;BMP280;12394;42.692;23.314;2024-03-08T09:03:47;95210.22;;;16.79
24278;BMP280;12394;42.692;23.314;2024-03-08T09:06:13;95202.19;;;15.76
24278;BMP280;12394;42.692;23.314;2024-03-08T09:08:41;95213.53;;;16.22
24278;BMP280;12394;42.692;23.314;2024-03-08T09:11:07;95210.63;;;17.95
24278;BMP280;12394;42.692;23.314;2024-03-08T09:13:33;95206.53;;;19.37
24278;BMP280;12394;42.692;23.314;2024-03-08T09:16:02;95189.38;;;20.63
24278;BMP280;12394;42.692;23.314;2024-03-08T09:18:30;95191.66;;;22.77
24278;BMP280;12394;42.692;23.314;2024-03-08T09:20:57;95199.47;;;23.54
24278;BMP280;12394;42.692;23.314;2024-03-08T09:23:23;95192.06;;;20.54
24278;BMP280;12394;42.692;23.314;2024-03-08T09:25:49;95197.09;;;18.61
24278;BMP280;12394;42.692;23.314;2024-03-08T09:28:15;95186.31;;;17.74
24278;BMP280;12394;42.692;23.314;2024-03-08T09:30:41;95194.56;;;17.39
24278;BMP280;12394;42.692;23.314;2024-03-08T09:33:06;95192.53;;;16.02
24278;BMP280;12394;42.692;23.314;2024-03-08T09:35:32;95167.09;;;15.11
24278;BMP280;12394;42.692;23.314;2024-03-08T09:37:58;95180.81;;;15.02
24278;BMP280;12394;42.692;23.314;2024-03-08T09:40:24;95190.06;;;15.95
24278;BMP280;12394;42.692;23.314;2024-03-08T09:42:51;95190.31;;;17.28
24278;BMP280;12394;42.692;23.314;2024-03-08T09:45:19;95184.97;;;15.88
24278;BMP280;12394;42.692;23.314;2024-03-08T09:47:47;95156.94;;;14.54
24278;BMP280;12394;42.692;23.314;2024-03-08T09:50:14;95192.91;;;14.41
24278;BMP280;12394;42.692;23.314;2024-03-08T09:52:40;95191.78;;;13.95
24278;BMP280;12394;42.692;23.314;2024-03-08T09:55:06;95190.63;;;13.73
24278;BMP280;12394;42.692;23.314;2024-03-08T09:57:36;95186.19;;;14.16
24278;BMP280;12394;42.692;23.314;2024-03-08T10:00:05;95188.47;;;15.13
24278;BMP280;12394;42.692;23.314;2024-03-08T10:02:47;95182.28;;;14.24
24278;BMP280;12394;42.692;23.314;2024-03-08T10:05:13;95182.50;;;17.12
24278;BMP280;12394;42.692;23.314;2024-03-08T10:07:39;95186.78;;;19.78
24278;BMP280;12394;42.692;23.314;2024-03-08T10:10:05;95195.13;;;20.89
24278;BMP280;12394;42.692;23.314;2024-03-08T10:12:30;95188.31;;;20.97
24278;BMP280;12394;42.692;23.314;2024-03-08T10:14:58;95190.03;;;21.27
24278;BMP280;12394;42.692;23.314;2024-03-08T10:17:24;95187.75;;;23.01
24278;BMP280;12394;42.692;23.314;2024-03-08T10:19:51;95187.56;;;22.52
24278;BMP280;12394;42.692;23.314;2024-03-08T10:22:19;95188.53;;;21.26
24278;BMP280;12394;42.692;23.314;2024-03-08T10:24:48;95176.28;;;21.29
24278;BMP280;12394;42.692;23.314;2024-03-08T10:27:16;95187.78;;;22.25
24278;BMP280;12394;42.692;23.314;2024-03-08T10:29:42;95167.41;;;22.36
24278;BMP280;12394;42.692;23.314;2024-03-08T10:32:09;95186.41;;;22.29
24278;BMP280;12394;42.692;23.314;2024-03-08T10:34:35;95177.16;;;21.26
24278;BMP280;12394;42.692;23.314;2024-03-08T10:37:03;95178.09;;;19.86
24278;BMP280;12394;42.692;23.314;2024-03-08T10:39:34;95176.59;;;18.53
24278;BMP280;12394;42.692;23.314;2024-03-08T10:42:03;95170.41;;;16.57
24278;BMP280;12394;42.692;23.314;2024-03-08T10:47:02;95161.75;;;14.95
24278;BMP280;12394;42.692;23.314;2024-03-08T10:49:38;95162.72;;;14.25
24278;BMP280;12394;42.692;23.314;2024-03-08T10:52:05;95169.63;;;15.14
24278;BMP280;12394;42.692;23.314;2024-03-08T10:54:34;95140.91;;;17.38
24278;BMP280;12394;42.692;23.314;2024-03-08T10:57:05;95164.94;;;18.16
24278;BMP280;12394;42.692;23.314;2024-03-08T10:59:31;95157.50;;;17.01
24278;BMP280;12394;42.692;23.314;2024-03-08T11:01:59;95157.00;;;15.90
24278;BMP280;12394;42.692;23.314;2024-03-08T11:04:25;95145.69;;;15.25
24278;BMP280;12394;42.692;23.314;2024-03-08T11:06:51;95144.44;;;16.11
24278;BMP280;12394;42.692;23.314;2024-03-08T11:09:37;95133.91;;;15.46
24278;BMP280;12394;42.692;23.314;2024-03-08T11:12:28;95129.53;;;15.07
24278;BMP280;12394;42.692;23.314;2024-03-08T11:15:01;95122.06;;;14.86
24278;BMP280;12394;42.692;23.314;2024-03-08T11:19:58;95120.50;;;13.90
24278;BMP280;12394;42.692;23.314;2024-03-08T11:22:28;95120.41;;;13.23
24278;BMP280;12394;42.692;23.314;2024-03-08T11:25:03;95132.88;;;12.59
24278;BMP280;12394;42.692;23.314;2024-03-08T11:27:34;95129.69;;;12.40
24278;BMP280;12394;42.692;23.314;2024-03-08T11:30:06;95132.41;;;12.33
24278;BMP280;12394;42.692;23.314;2024-03-08T11:32:46;95119.41;;;12.23
24278;BMP280;12394;42.692;23.314;2024-03-08T11:35:21;95117.97;;;12.18
24278;BMP280;12394;42.692;23.314;2024-03-08T11:37:48;95104.38;;;12.27
24278;BMP280;12394;42.692;23.314;2024-03-08T11:40:14;95098.72;;;12.62
24278;BMP280;12394;42.692;23.314;2024-03-08T11:42:48;95108.28;;;12.45
24278;BMP280;12394;42.692;23.314;2024-03-08T11:45:18;95108.66;;;12.47
24278;BMP280;12394;42.692;23.314;2024-03-08T11:47:46;95106.94;;;12.64
24278;BMP280;12394;42.692;23.314;2024-03-08T11:50:13;95116.63;;;12.37
24278;BMP280;12394;42.692;23.314;2024-03-08T11:52:39;95119.69;;;11.50
24278;BMP280;12394;42.692;23.314;2024-03-08T11:55:06;95124.31;;;11.83
24278;BMP280;12394;42.692;23.314;2024-03-08T11:57:32;95110.03;;;12.25
24278;BMP280;12394;42.692;23.314;2024-03-08T11:59:59;95123.06;;;12.93
24278;BMP280;12394;42.692;23.314;2024-03-08T12:02:33;95110.63;;;12.97
24278;BMP280;12394;42.692;23.314;2024-03-08T12:05:01;95108.81;;;13.21
24278;BMP280;12394;42.692;23.314;2024-03-08T12:07:31;95116.78;;;13.41
24278;BMP280;12394;42.692;23.314;2024-03-08T12:12:51;95092.09;;;13.08
24278;BMP280;12394;42.692;23.314;2024-03-08T12:15:20;95112.13;;;12.98
24278;BMP280;12394;42.692;23.314;2024-03-08T12:17:48;95110.97;;;12.99
24278;BMP280;12394;42.692;23.314;2024-03-08T12:20:40;95105.06;;;12.91
24278;BMP280;12394;42.692;23.314;2024-03-08T12:23:14;95108.97;;;12.49
24278;BMP280;12394;42.692;23.314;2024-03-08T12:25:40;95102.09;;;12.63
24278;BMP280;12394;42.692;23.314;2024-03-08T12:28:12;95086.63;;;12.68
24278;BMP280;12394;42.692;23.314;2024-03-08T12:30:49;95090.81;;;12.32
24278;BMP280;12394;42.692;23.314;2024-03-08T12:33:19;95103.06;;;12.12
24278;BMP280;12394;42.692;23.314;2024-03-08T12:35:52;95091.97;;;11.97
24278;BMP280;12394;42.692;23.314;2024-03-08T12:38:23;95097.97;;;11.53
24278;BMP280;12394;42.692;23.314;2024-03-08T12:40:55;95085.09;;;11.69
24278;BMP280;12394;42.692;23.314;2024-03-08T12:43:22;95095.09;;;11.85
24278;BMP280;12394;42.692;23.314;2024-03-08T12:45:47;95071.69;;;12.01
24278;BMP280;12394;42.692;23.314;2024-03-08T12:48:14;95074.25;;;12.08
24278;BMP280;12394;42.692;23.314;2024-03-08T12:50:41;95083.66;;;11.61
24278;BMP280;12394;42.692;23.314;2024-03-08T12:53:09;95085.84;;;11.70
24278;BMP280;12394;42.692;23.314;2024-03-08T12:55:34;95067.84;;;11.72
24278;BMP280;12394;42.692;23.314;2024-03-08T12:58:00;95082.28;;;11.90
24278;BMP280;12394;42.692;23.314;2024-03-08T13:00:26;95079.09;;;11.69
24278;BMP280;12394;42.692;23.314;2024-03-08T13:02:53;95089.41;;;11.45
24278;BMP280;12394;42.692;23.314;2024-03-08T13:05:20;95086.69;;;11.56
24278;BMP280;12394;42.692;23.314;2024-03-08T13:07:46;95088.56;;;11.55
24278;BMP280;12394;42.692;23.314;2024-03-08T13:10:16;95084.94;;;11.42
24278;BMP280;12394;42.692;23.314;2024-03-08T13:12:45;95082.63;;;11.03
24278;BMP280;12394;42.692;23.314;2024-03-08T13:15:11;95087.13;;;11.03
24278;BMP280;12394;42.692;23.314;2024-03-08T13:17:40;95084.91;;;10.98
24278;BMP280;12394;42.692;23.314;2024-03-08T13:20:09;95085.56;;;11.12
24278;BMP280;12394;42.692;23.314;2024-03-08T13:22:41;95081.22;;;10.88
24278;BMP280;12394;42.692;23.314;2024-03-08T13:25:07;95080.06;;;10.93
24278;BMP280;12394;42.692;23.314;2024-03-08T13:27:41;95083.19;;;10.70
24278;BMP280;12394;42.692;23.314;2024-03-08T13:30:11;95064.47;;;10.79
24278;BMP280;12394;42.692;23.314;2024-03-08T13:32:44;95074.84;;;10.93
24278;BMP280;12394;42.692;23.314;2024-03-08T13:35:13;95075.94;;;10.95
24278;BMP280;12394;42.692;23.314;2024-03-08T13:37:58;95073.44;;;10.78
24278;BMP280;12394;42.692;23.314;2024-03-08T13:40:24;95076.50;;;10.65
24278;BMP280;12394;42.692;23.314;2024-03-08T13:42:51;95072.38;;;10.64
24278;BMP280;12394;42.692;23.314;2024-03-08T13:45:17;95082.16;;;10.50
24278;BMP280;12394;42.692;23.314;2024-03-08T13:47:50;95074.41;;;10.36
24278;BMP280;12394;42.692;23.314;2024-03-08T13:50:16;95072.94;;;10.27
24278;BMP280;12394;42.692;23.314;2024-03-08T13:52:49;95078.50;;;10.33
24278;BMP280;12394;42.692;23.314;2024-03-08T13:55:19;95063.59;;;10.23
24278;BMP280;12394;42.692;23.314;2024-03-08T13:57:45;95080.44;;;10.22
24278;BMP280;12394;42.692;23.314;2024-03-08T14:00:12;95080.78;;;10.27
24278;BMP280;12394;42.692;23.314;2024-03-08T14:02:38;95078.53;;;10.30
24278;BMP280;12394;42.692;23.314;2024-03-08T14:05:07;95080.78;;;10.24
24278;BMP280;12394;42.692;23.314;2024-03-08T14:07:34;95074.06;;;10.23
24278;BMP280;12394;42.692;23.314;2024-03-08T14:10:00;95075.91;;;10.33
24278;BMP280;12394;42.692;23.314;2024-03-08T14:12:25;95081.19;;;10.19
24278;BMP280;12394;42.692;23.314;2024-03-08T14:14:52;95079.72;;;10.00
24278;BMP280;12394;42.692;23.314;2024-03-08T14:17:18;95061.47;;;9.90
24278;BMP280;12394;42.692;23.314;2024-03-08T14:19:43;95073.75;;;10.00
24278;BMP280;12394;42.692;23.314;2024-03-08T14:22:09;95081.59;;;9.93
24278;BMP280;12394;42.692;23.314;2024-03-08T14:24:40;95074.91;;;9.85
24278;BMP280;12394;42.692;23.314;2024-03-08T14:27:05;95077.16;;;9.79
24278;BMP280;12394;42.692;23.314;2024-03-08T14:29:33;95079.41;;;9.80
24278;BMP280;12394;42.692;23.314;2024-03-08T14:31:59;95074.19;;;9.80
24278;BMP280;12394;42.692;23.314;2024-03-08T14:34:26;95083.88;;;9.73
24278;BMP280;12394;42.692;23.314;2024-03-08T14:36:53;95082.38;;;9.79
24278;BMP280;12394;42.692;23.314;2024-03-08T14:39:19;95088.00;;;9.67
24278;BMP280;12394;42.692;23.314;2024-03-08T14:41:51;95083.88;;;9.73
24278;BMP280;12394;42.692;23.314;2024-03-08T14:44:19;95079.06;;;9.57
24278;BMP280;12394;42.692;23.314;2024-03-08T14:46:45;95050.75;;;9.17
24278;BMP280;12394;42.692;23.314;2024-03-08T14:49:13;95079.47;;;9.34
24278;BMP280;12394;42.692;23.314;2024-03-08T14:51:39;95076.84;;;9.31
24278;BMP280;12394;42.692;23.314;2024-03-08T14:54:05;95078.69;;;8.95
24278;BMP280;12394;42.692;23.314;2024-03-08T14:56:39;95089.13;;;8.95
24278;BMP280;12394;42.692;23.314;2024-03-08T14:59:08;95090.59;;;8.78
24278;BMP280;12394;42.692;23.314;2024-03-08T15:01:35;95088.34;;;8.73
24278;BMP280;12394;42.692;23.314;2024-03-08T15:04:04;95096.50;;;8.61
24278;BMP280;12394;42.692;23.314;2024-03-08T15:06:40;95067.44;;;8.52
24278;BMP280;12394;42.692;23.314;2024-03-08T15:09:08;95085.63;;;8.38
24278;BMP280;12394;42.692;23.314;2024-03-08T15:11:40;95082.25;;;8.30
24278;BMP280;12394;42.692;23.314;2024-03-08T15:14:08;95092.63;;;8.27
24278;BMP280;12394;42.692;23.314;2024-03-08T15:16:42;95082.88;;;8.10
24278;BMP280;12394;42.692;23.314;2024-03-08T15:19:09;95093.22;;;7.95
24278;BMP280;12394;42.692;23.314;2024-03-08T15:21:37;95087.94;;;7.81
24278;BMP280;12394;42.692;23.314;2024-03-08T15:24:03;95090.50;;;7.74
24278;BMP280;12394;42.692;23.314;2024-03-08T15:26:29;95092.88;;;7.93
24278;BMP280;12394;42.692;23.314;2024-03-08T15:28:56;95079.03;;;7.82
24278;BMP280;12394;42.692;23.314;2024-03-08T15:31:22;95092.38;;;7.74
24278;BMP280;12394;42.692;23.314;2024-03-08T15:33:50;95089.34;;;7.68
24278;BMP280;12394;42.692;23.314;2024-03-08T15:36:42;95084.94;;;7.76
24278;BMP280;12394;42.692;23.314;2024-03-08T15:39:08;95093.13;;;7.78
24278;BMP280;12394;42.692;23.314;2024-03-08T15:41:35;95093.84;;;7.71
24278;BMP280;12394;42.692;23.314;2024-03-08T15:44:00;95094.88;;;7.56
24278;BMP280;12394;42.692;23.314;2024-03-08T15:46:26;95097.78;;;7.47
24278;BMP280;12394;42.692;23.314;2024-03-08T15:48:52;95101.16;;;7.55
24278;BMP280;12394;42.692;23.314;2024-03-08T15:51:19;95102.25;;;7.47
24278;BMP280;12394;42.692;23.314;2024-03-08T15:53:45;95107.13;;;7.55
24278;BMP280;12394;42.692;23.314;2024-03-08T15:56:20;95110.03;;;7.47
24278;BMP280;12394;42.692;23.314;2024-03-08T15:58:48;95111.47;;;7.41
24278;BMP280;12394;42.692;23.314;2024-03-08T16:01:13;95100.97;;;7.27
24278;BMP280;12394;42.692;23.314;2024-03-08T16:03:43;95115.84;;;7.26
24278;BMP280;12394;42.692;23.314;2024-03-08T16:06:10;95112.34;;;7.08
24278;BMP280;12394;42.692;23.314;2024-03-08T16:08:36;95108.84;;;6.93
24278;BMP280;12394;42.692;23.314;2024-03-08T16:11:02;95119.41;;;7.07
24278;BMP280;12394;42.692;23.314;2024-03-08T16:13:33;95121.28;;;7.14
24278;BMP280;12394;42.692;23.314;2024-03-08T16:15:58;95120.09;;;7.04
24278;BMP280;12394;42.692;23.314;2024-03-08T16:18:24;95127.44;;;6.95
24278;BMP280;12394;42.692;23.314;2024-03-08T16:20:52;95119.88;;;6.80
24278;BMP280;12394;42.692;23.314;2024-03-08T16:23:18;95129.19;;;6.84
24278;BMP280;12394;42.692;23.314;2024-03-08T16:25:44;95135.47;;;6.80
24278;BMP280;12394;42.692;23.314;2024-03-08T16:28:10;95136.22;;;6.80
24278;BMP280;12394;42.692;23.314;2024-03-08T16:30:40;95143.16;;;6.69
24278;BMP280;12394;42.692;23.314;2024-03-08T16:33:08;95148.00;;;6.70